createdAt,value
2019-05-22T00:01:10.948Z,16.60
2019-05-22T00:02:30.676Z,16.70
2019-05-22T00:03:42.092Z,16.70
2019-05-22T00:04:55.622Z,16.70
2019-05-22T00:06:01.055Z,16.70
2019-05-22T00:07:08.359Z,16.70
2019-05-22T00:08:14.201Z,16.70
2019-05-22T00:09:22.096Z,16.70
2019-05-22T00:10:28.957Z,16.70
2019-05-22T00:11:35.056Z,16.70
2019-05-22T00:12:46.603Z,16.70
2019-05-22T00:13:50.946Z,16.70
2019-05-22T00:14:56.864Z,16.70
2019-05-22T00:16:03.937Z,16.70
2019-05-22T00:17:10.557Z,16.70
2019-05-22T00:18:16.135Z,16.70
2019-05-22T00:19:23.188Z,16.70
2019-05-22T00:20:29.547Z,16.70
2019-05-22T00:21:36.337Z,16.70
2019-05-22T00:22:43.217Z,16.60
2019-05-22T00:23:50.105Z,16.60
2019-05-22T00:24:56.788Z,16.70
2019-05-22T00:26:33.852Z,16.60
2019-05-22T00:27:39.582Z,16.70
2019-05-22T00:28:46.076Z,16.70
2019-05-22T00:29:53.874Z,16.60
2019-05-22T00:31:00.663Z,16.60
2019-05-22T00:32:05.310Z,16.60
2019-05-22T00:33:11.076Z,16.60
2019-05-22T00:34:17.208Z,16.60
2019-05-22T00:35:23.864Z,16.60
2019-05-22T00:36:29.299Z,16.60
2019-05-22T00:37:35.131Z,16.60
2019-05-22T00:38:42.130Z,16.60
2019-05-22T00:39:48.788Z,16.60
2019-05-22T00:41:02.956Z,16.60
2019-05-22T00:42:10.278Z,16.50
2019-05-22T00:43:18.514Z,16.60
2019-05-22T00:44:25.160Z,16.60
2019-05-22T00:45:31.215Z,16.50
2019-05-22T00:46:37.120Z,16.50
2019-05-22T00:47:42.184Z,16.50
2019-05-22T00:48:48.355Z,16.50
2019-05-22T00:49:55.055Z,16.50
2019-05-22T00:51:19.147Z,16.50
2019-05-22T00:52:46.333Z,16.40
2019-05-22T00:53:59.267Z,16.40
2019-05-22T00:55:17.169Z,16.30
2019-05-22T00:56:58.207Z,16.20
2019-05-22T00:58:16.830Z,16.20
2019-05-22T00:59:33.757Z,16.10
2019-05-22T01:00:43.308Z,16.10
2019-05-22T01:01:53.848Z,16.10
2019-05-22T01:03:00.210Z,16.00
2019-05-22T01:04:06.201Z,16.00
2019-05-22T01:05:11.407Z,16.00
2019-05-22T01:06:16.951Z,16.00
2019-05-22T01:07:30.075Z,16.00
2019-05-22T01:08:38.448Z,16.00
2019-05-22T01:09:44.378Z,15.90
2019-05-22T01:10:53.502Z,15.90
2019-05-22T01:12:00.108Z,15.90
2019-05-22T01:13:05.456Z,15.90
2019-05-22T01:14:10.056Z,15.90
2019-05-22T01:15:21.236Z,15.90
2019-05-22T01:16:27.148Z,15.90
2019-05-22T01:17:36.289Z,16.00
2019-05-22T01:18:42.662Z,15.90
2019-05-22T01:19:51.164Z,16.00
2019-05-22T01:20:59.885Z,16.00
2019-05-22T01:22:06.821Z,15.90
2019-05-22T01:23:16.085Z,16.00
2019-05-22T01:24:21.241Z,16.00
2019-05-22T01:25:27.341Z,15.90
2019-05-22T01:26:33.750Z,15.90
2019-05-22T01:27:38.786Z,15.90
2019-05-22T01:28:44.883Z,15.90
2019-05-22T01:29:51.349Z,15.90
2019-05-22T01:31:02.657Z,15.80
2019-05-22T01:32:23.067Z,15.80
2019-05-22T01:33:34.222Z,15.80
2019-05-22T01:34:39.519Z,15.80
2019-05-22T01:35:52.918Z,15.80
2019-05-22T01:37:01.708Z,15.80
2019-05-22T01:38:07.635Z,15.80
2019-05-22T01:39:35.461Z,15.80
2019-05-22T01:40:48.495Z,15.80
2019-05-22T01:41:56.258Z,15.70
2019-05-22T01:43:02.766Z,15.70
2019-05-22T01:44:09.453Z,15.70
2019-05-22T01:45:18.919Z,15.70
2019-05-22T01:46:25.368Z,15.70
2019-05-22T01:47:40.509Z,15.60
2019-05-22T01:48:45.738Z,15.70
2019-05-22T01:49:54.724Z,15.60
2019-05-22T01:51:00.914Z,15.60
2019-05-22T01:52:07.086Z,15.60
2019-05-22T01:53:15.607Z,15.60
2019-05-22T01:54:22.335Z,15.60
2019-05-22T01:55:27.776Z,15.50
2019-05-22T01:56:34.515Z,15.50
2019-05-22T01:57:40.719Z,15.50
2019-05-22T01:58:46.344Z,15.50
2019-05-22T01:59:52.513Z,15.50
2019-05-22T02:00:58.431Z,15.50
2019-05-22T02:02:04.375Z,15.50
2019-05-22T02:03:11.059Z,15.50
2019-05-22T02:04:15.614Z,15.50
2019-05-22T02:05:23.105Z,15.50
2019-05-22T02:06:28.059Z,15.40
2019-05-22T02:07:34.965Z,15.40
2019-05-22T02:08:44.016Z,15.40
2019-05-22T02:09:49.200Z,15.30
2019-05-22T02:10:56.063Z,15.40
2019-05-22T02:12:08.424Z,15.40
2019-05-22T02:13:15.325Z,15.40
2019-05-22T02:14:22.765Z,15.40
2019-05-22T02:15:27.982Z,15.40
2019-05-22T02:16:33.896Z,15.40
2019-05-22T02:17:39.413Z,15.40
2019-05-22T02:18:46.620Z,15.40
2019-05-22T02:19:52.008Z,15.40
2019-05-22T02:20:58.423Z,15.40
2019-05-22T02:22:05.444Z,15.40
2019-05-22T02:23:11.389Z,15.40
2019-05-22T02:24:18.559Z,15.40
2019-05-22T02:25:24.476Z,15.40
2019-05-22T02:26:29.126Z,15.30
2019-05-22T02:27:34.688Z,15.30
2019-05-22T02:28:40.111Z,15.30
2019-05-22T02:29:48.208Z,15.30
2019-05-22T02:30:54.399Z,15.30
2019-05-22T02:31:59.565Z,15.30
2019-05-22T02:33:06.593Z,15.20
2019-05-22T02:34:12.011Z,15.20
2019-05-22T02:35:17.243Z,15.30
2019-05-22T02:36:23.444Z,15.20
2019-05-22T02:37:29.766Z,15.20
2019-05-22T02:38:35.524Z,15.30
2019-05-22T02:39:41.175Z,15.20
2019-05-22T02:40:47.387Z,15.30
2019-05-22T02:41:59.628Z,15.30
2019-05-22T02:43:06.485Z,15.30
2019-05-22T02:44:11.440Z,15.30
2019-05-22T02:45:17.271Z,15.30
2019-05-22T02:46:22.986Z,15.30
2019-05-22T02:47:29.346Z,15.20
2019-05-22T02:48:34.053Z,15.20
2019-05-22T02:49:39.483Z,15.20
2019-05-22T02:50:45.959Z,15.20
2019-05-22T02:51:52.538Z,15.10
2019-05-22T02:52:58.983Z,15.10
2019-05-22T02:54:06.210Z,15.10
2019-05-22T02:55:11.168Z,15.10
2019-05-22T02:56:16.572Z,15.10
2019-05-22T02:57:21.895Z,15.10
2019-05-22T02:58:28.077Z,15.00
2019-05-22T02:59:32.912Z,15.00
2019-05-22T03:00:51.033Z,15.00
2019-05-22T03:01:56.621Z,15.00
2019-05-22T03:03:02.192Z,15.00
2019-05-22T03:04:08.993Z,15.00
2019-05-22T03:05:15.762Z,15.00
2019-05-22T03:06:20.665Z,14.90
2019-05-22T03:07:26.281Z,14.90
2019-05-22T03:09:04.977Z,14.90
2019-05-22T03:10:13.877Z,14.90
2019-05-22T03:11:19.036Z,14.90
2019-05-22T03:12:24.856Z,14.90
2019-05-22T03:13:59.638Z,14.90
2019-05-22T03:15:09.334Z,14.90
2019-05-22T03:16:15.373Z,14.90
2019-05-22T03:17:28.847Z,14.80
2019-05-22T03:18:34.321Z,14.80
2019-05-22T03:19:43.219Z,14.80
2019-05-22T03:20:48.809Z,14.70
2019-05-22T03:21:54.103Z,14.70
2019-05-22T03:23:33.439Z,14.70
2019-05-22T03:24:39.389Z,14.70
2019-05-22T03:25:44.612Z,14.70
2019-05-22T03:26:50.975Z,14.70
2019-05-22T03:27:57.406Z,14.60
2019-05-22T03:29:02.607Z,14.60
2019-05-22T03:30:12.803Z,14.60
2019-05-22T03:31:18.758Z,14.50
2019-05-22T03:32:24.537Z,14.50
2019-05-22T03:33:30.008Z,14.50
2019-05-22T03:34:35.925Z,14.50
2019-05-22T03:35:51.798Z,14.50
2019-05-22T03:36:56.536Z,14.50
2019-05-22T03:38:04.012Z,14.50
2019-05-22T03:39:09.094Z,14.50
2019-05-22T03:40:16.215Z,14.50
2019-05-22T03:41:21.287Z,14.50
2019-05-22T03:42:27.697Z,14.50
2019-05-22T03:43:32.585Z,14.50
2019-05-22T03:44:37.758Z,14.50
2019-05-22T03:45:42.372Z,14.50
2019-05-22T03:46:48.591Z,14.50
2019-05-22T03:47:54.135Z,14.50
2019-05-22T03:49:01.191Z,14.50
2019-05-22T03:50:07.143Z,14.50
2019-05-22T03:51:13.900Z,14.50
2019-05-22T03:52:18.957Z,14.50
2019-05-22T03:53:24.828Z,14.50
2019-05-22T03:54:30.623Z,14.50
2019-05-22T03:55:36.489Z,14.50
2019-05-22T03:56:42.348Z,14.50
2019-05-22T03:57:47.637Z,14.60
2019-05-22T03:58:52.483Z,14.60
2019-05-22T03:59:58.055Z,14.50
2019-05-22T04:01:04.058Z,14.50
2019-05-22T04:02:10.972Z,14.50
2019-05-22T04:03:16.017Z,14.50
2019-05-22T04:04:47.382Z,14.50
2019-05-22T04:05:53.371Z,14.50
2019-05-22T04:06:58.815Z,14.50
2019-05-22T04:08:06.208Z,14.50
2019-05-22T04:09:31.006Z,14.50
2019-05-22T04:10:43.631Z,14.50
2019-05-22T04:11:50.172Z,14.40
2019-05-22T04:12:55.520Z,14.40
2019-05-22T04:14:01.644Z,14.40
2019-05-22T04:15:08.776Z,14.40
2019-05-22T04:16:15.891Z,14.40
2019-05-22T04:17:21.314Z,14.40
2019-05-22T04:18:27.456Z,14.40
2019-05-22T04:19:47.573Z,14.40
2019-05-22T04:20:40.158Z,14.40
2019-05-22T04:21:45.921Z,14.40
2019-05-22T04:22:55.916Z,14.40
2019-05-22T04:24:00.837Z,14.30
2019-05-22T04:25:07.327Z,14.30
2019-05-22T04:26:13.796Z,14.30
2019-05-22T04:27:19.160Z,14.30
2019-05-22T04:28:24.277Z,14.30
2019-05-22T04:29:32.862Z,14.30
2019-05-22T04:30:37.577Z,14.30
2019-05-22T04:31:51.727Z,14.30
2019-05-22T04:32:56.878Z,14.20
2019-05-22T04:34:02.045Z,14.20
2019-05-22T04:35:11.252Z,14.30
2019-05-22T04:36:16.916Z,14.20
2019-05-22T04:37:23.584Z,14.20
2019-05-22T04:38:29.073Z,14.20
2019-05-22T04:39:35.898Z,14.20
2019-05-22T04:40:53.640Z,14.20
2019-05-22T04:42:00.943Z,14.10
2019-05-22T04:43:07.817Z,14.10
2019-05-22T04:44:12.425Z,14.10
2019-05-22T04:45:19.080Z,14.10
2019-05-22T04:46:24.281Z,14.10
2019-05-22T04:47:31.088Z,14.10
2019-05-22T04:48:37.810Z,14.10
2019-05-22T04:49:43.129Z,14.10
2019-05-22T04:50:50.081Z,14.00
2019-05-22T04:51:56.321Z,14.10
2019-05-22T04:53:01.842Z,14.00
2019-05-22T04:54:07.079Z,14.10
2019-05-22T04:55:13.587Z,14.10
2019-05-22T04:56:18.861Z,14.00
2019-05-22T04:57:23.978Z,14.00
2019-05-22T04:58:31.721Z,14.00
2019-05-22T04:59:37.560Z,14.00
2019-05-22T05:00:43.112Z,13.90
2019-05-22T05:01:48.340Z,13.90
2019-05-22T05:02:54.132Z,13.90
2019-05-22T05:04:00.272Z,13.80
2019-05-22T05:05:07.269Z,13.80
2019-05-22T05:06:12.645Z,13.80
2019-05-22T05:07:17.813Z,13.80
2019-05-22T05:08:22.996Z,13.70
2019-05-22T05:09:28.545Z,13.70
2019-05-22T05:10:33.680Z,13.70
2019-05-22T05:11:39.249Z,13.70
2019-05-22T05:12:44.349Z,13.70
2019-05-22T05:13:49.579Z,13.70
2019-05-22T05:14:54.163Z,13.70
2019-05-22T05:15:59.414Z,13.70
2019-05-22T05:17:05.039Z,13.60
2019-05-22T05:18:10.210Z,13.60
2019-05-22T05:19:15.830Z,13.60
2019-05-22T05:20:22.747Z,13.60
2019-05-22T05:21:28.128Z,13.60
2019-05-22T05:22:43.048Z,13.70
2019-05-22T05:23:48.810Z,13.60
2019-05-22T05:24:55.861Z,13.60
2019-05-22T05:26:00.541Z,13.60
2019-05-22T05:27:05.820Z,13.60
2019-05-22T05:28:12.423Z,13.50
2019-05-22T05:29:27.969Z,13.50
2019-05-22T05:30:32.953Z,13.50
2019-05-22T05:31:38.941Z,13.50
2019-05-22T05:32:44.292Z,13.50
2019-05-22T05:34:13.056Z,13.50
2019-05-22T05:35:20.048Z,13.50
2019-05-22T05:36:25.232Z,13.50
2019-05-22T05:37:30.108Z,13.50
2019-05-22T05:38:37.631Z,13.50
2019-05-22T05:40:31.263Z,13.40
2019-05-22T05:41:36.934Z,13.40
2019-05-22T05:42:41.660Z,13.40
2019-05-22T05:43:48.078Z,13.40
2019-05-22T05:44:52.768Z,13.40
2019-05-22T05:45:58.067Z,13.40
2019-05-22T05:47:03.648Z,13.30
2019-05-22T05:48:11.798Z,13.30
2019-05-22T05:49:17.274Z,13.30
2019-05-22T05:50:38.346Z,13.30
2019-05-22T05:51:33.711Z,13.30
2019-05-22T05:52:39.426Z,13.20
2019-05-22T05:53:59.576Z,13.20
2019-05-22T05:55:05.726Z,13.20
2019-05-22T05:56:14.883Z,13.20
2019-05-22T05:58:13.366Z,13.20
2019-05-22T05:59:23.089Z,13.20
2019-05-22T06:00:31.261Z,13.20
2019-05-22T06:01:45.474Z,13.20
2019-05-22T06:02:56.528Z,13.20
2019-05-22T06:04:00.171Z,13.20
2019-05-22T06:05:05.716Z,13.10
2019-05-22T06:06:36.759Z,13.10
2019-05-22T06:07:42.152Z,13.10
2019-05-22T06:08:48.539Z,13.10
2019-05-22T06:10:40.806Z,13.00
2019-05-22T06:11:49.009Z,13.00
2019-05-22T06:12:54.260Z,13.00
2019-05-22T06:13:59.376Z,13.00
2019-05-22T06:15:05.065Z,13.00
2019-05-22T06:16:47.484Z,13.10
2019-05-22T06:18:36.343Z,13.10
2019-05-22T06:19:45.877Z,13.20
2019-05-22T06:21:03.351Z,13.20
2019-05-22T06:21:58.756Z,13.20
2019-05-22T06:23:44.942Z,13.20
2019-05-22T06:24:58.079Z,13.20
2019-05-22T06:26:04.746Z,13.10
2019-05-22T06:27:23.663Z,13.10
2019-05-22T06:28:31.570Z,13.10
2019-05-22T06:29:43.876Z,13.00
2019-05-22T06:30:48.912Z,13.00
2019-05-22T06:32:30.274Z,13.00
2019-05-22T06:33:36.431Z,13.00
2019-05-22T06:34:41.287Z,13.00
2019-05-22T06:35:49.327Z,13.00
2019-05-22T06:36:56.965Z,13.00
2019-05-22T06:38:13.500Z,13.00
2019-05-22T06:39:19.657Z,13.00
2019-05-22T06:40:25.915Z,13.00
2019-05-22T06:41:35.013Z,13.00
2019-05-22T06:42:44.292Z,13.00
2019-05-22T06:44:39.630Z,13.00
2019-05-22T06:45:44.803Z,13.00
2019-05-22T06:46:49.742Z,13.00
2019-05-22T06:47:54.910Z,13.00
2019-05-22T06:49:03.847Z,13.00
2019-05-22T06:50:10.208Z,13.00
2019-05-22T06:51:19.504Z,13.00
2019-05-22T06:52:22.560Z,13.00
2019-05-22T06:53:27.274Z,13.00
2019-05-22T06:54:32.507Z,13.00
2019-05-22T06:55:37.292Z,13.00
2019-05-22T06:56:42.394Z,13.00
2019-05-22T06:57:47.090Z,13.00
2019-05-22T06:58:52.240Z,13.00
2019-05-22T07:00:12.149Z,13.00
2019-05-22T07:01:06.142Z,13.00
2019-05-22T07:02:12.992Z,13.00
2019-05-22T07:03:19.276Z,13.00
2019-05-22T07:04:23.864Z,13.00
2019-05-22T07:05:29.577Z,13.00
2019-05-22T07:06:34.114Z,13.00
2019-05-22T07:07:39.323Z,13.00
2019-05-22T07:08:44.438Z,13.00
2019-05-22T07:09:50.162Z,13.00
2019-05-22T07:10:55.083Z,12.90
2019-05-22T07:12:01.133Z,12.90
2019-05-22T07:13:08.482Z,12.90
2019-05-22T07:14:14.542Z,12.90
2019-05-22T07:15:34.081Z,12.80
2019-05-22T07:16:41.123Z,12.80
2019-05-22T07:17:47.272Z,12.80
2019-05-22T07:18:53.431Z,12.80
2019-05-22T07:19:58.510Z,12.80
2019-05-22T07:21:03.809Z,12.80
2019-05-22T07:22:09.286Z,12.80
2019-05-22T07:23:17.310Z,12.80
2019-05-22T07:24:22.602Z,12.80
2019-05-22T07:25:29.560Z,12.80
2019-05-22T07:26:35.829Z,12.80
2019-05-22T07:27:41.283Z,12.80
2019-05-22T07:28:47.283Z,12.80
2019-05-22T07:29:52.757Z,12.80
2019-05-22T07:30:57.987Z,12.80
2019-05-22T07:32:03.142Z,12.90
2019-05-22T07:33:08.085Z,12.90
2019-05-22T07:34:13.383Z,12.90
2019-05-22T07:35:17.977Z,12.90
2019-05-22T07:36:24.698Z,12.90
2019-05-22T07:37:30.127Z,12.90
2019-05-22T07:38:35.680Z,12.90
2019-05-22T07:39:40.405Z,12.90
2019-05-22T07:40:49.869Z,12.90
2019-05-22T07:41:52.375Z,12.90
2019-05-22T07:42:58.787Z,12.90
2019-05-22T07:44:03.674Z,12.90
2019-05-22T07:45:09.435Z,13.00
2019-05-22T07:46:14.339Z,13.00
2019-05-22T07:47:23.085Z,12.90
2019-05-22T07:48:30.115Z,12.90
2019-05-22T07:49:35.909Z,12.90
2019-05-22T07:50:47.940Z,12.90
2019-05-22T07:51:58.841Z,12.90
2019-05-22T07:52:58.588Z,12.90
2019-05-22T07:54:03.674Z,12.90
2019-05-22T07:55:09.106Z,12.90
2019-05-22T07:56:16.108Z,12.90
2019-05-22T07:57:23.781Z,12.90
2019-05-22T07:58:31.684Z,12.80
2019-05-22T07:59:36.534Z,12.90
2019-05-22T08:01:00.330Z,12.90
2019-05-22T08:02:06.628Z,12.90
2019-05-22T08:03:12.791Z,12.90
2019-05-22T08:04:19.084Z,12.90
2019-05-22T08:05:25.944Z,12.90
2019-05-22T08:06:30.503Z,12.80
2019-05-22T08:07:37.249Z,12.80
2019-05-22T08:08:43.484Z,12.80
2019-05-22T08:09:49.950Z,12.80
2019-05-22T08:10:56.695Z,12.80
2019-05-22T08:12:02.298Z,12.80
2019-05-22T08:13:08.003Z,12.90
2019-05-22T08:14:14.397Z,12.90
2019-05-22T08:15:19.721Z,12.90
2019-05-22T08:16:25.803Z,13.00
2019-05-22T08:17:31.446Z,12.90
2019-05-22T08:18:40.787Z,13.00
2019-05-22T08:19:45.744Z,13.00
2019-05-22T08:20:51.124Z,13.00
2019-05-22T08:22:06.891Z,13.10
2019-05-22T08:23:03.622Z,13.10
2019-05-22T08:24:09.299Z,13.10
2019-05-22T08:25:14.636Z,13.10
2019-05-22T08:26:21.202Z,13.10
2019-05-22T08:27:26.484Z,13.10
2019-05-22T08:28:32.926Z,13.10
2019-05-22T08:29:39.641Z,13.10
2019-05-22T08:30:45.495Z,13.00
2019-05-22T08:31:51.351Z,13.00
2019-05-22T08:32:58.373Z,13.10
2019-05-22T08:34:06.903Z,13.10
2019-05-22T08:35:12.427Z,13.10
2019-05-22T08:36:17.640Z,13.10
2019-05-22T08:37:27.725Z,13.10
2019-05-22T08:38:34.187Z,13.10
2019-05-22T08:39:39.783Z,13.20
2019-05-22T08:40:47.472Z,13.20
2019-05-22T08:41:52.648Z,13.20
2019-05-22T08:42:58.466Z,13.20
2019-05-22T08:44:16.073Z,13.20
2019-05-22T08:45:13.532Z,13.20
2019-05-22T08:46:18.697Z,13.20
2019-05-22T08:47:24.532Z,13.20
2019-05-22T08:48:30.395Z,13.30
2019-05-22T08:49:36.143Z,13.30
2019-05-22T08:50:43.946Z,13.30
2019-05-22T08:51:50.343Z,13.30
2019-05-22T08:52:55.180Z,13.30
2019-05-22T08:54:00.464Z,13.40
2019-05-22T08:55:07.513Z,13.40
2019-05-22T08:56:13.591Z,13.30
2019-05-22T08:57:20.921Z,13.40
2019-05-22T08:58:27.611Z,13.40
2019-05-22T08:59:32.277Z,13.30
2019-05-22T09:00:37.595Z,13.30
2019-05-22T09:01:42.707Z,13.30
2019-05-22T09:02:47.920Z,13.30
2019-05-22T09:03:52.800Z,13.30
2019-05-22T09:04:58.007Z,13.30
2019-05-22T09:06:02.625Z,13.30
2019-05-22T09:07:08.175Z,13.30
2019-05-22T09:08:12.928Z,13.20
2019-05-22T09:09:18.313Z,13.20
2019-05-22T09:10:26.224Z,13.20
2019-05-22T09:11:30.989Z,13.20
2019-05-22T09:12:35.610Z,13.10
2019-05-22T09:13:41.128Z,13.10
2019-05-22T09:14:46.040Z,13.20
2019-05-22T09:15:51.586Z,13.20
2019-05-22T09:16:56.261Z,13.20
2019-05-22T09:18:01.587Z,13.20
2019-05-22T09:19:06.431Z,13.20
2019-05-22T09:20:12.530Z,13.20
2019-05-22T09:21:17.336Z,13.20
2019-05-22T09:22:39.143Z,13.30
2019-05-22T09:23:29.202Z,13.30
2019-05-22T09:24:34.682Z,13.30
2019-05-22T09:25:39.996Z,13.40
2019-05-22T09:26:45.207Z,13.40
2019-05-22T09:27:49.823Z,13.50
2019-05-22T09:28:55.000Z,13.50
2019-05-22T09:29:59.534Z,13.50
2019-05-22T09:31:05.701Z,13.50
2019-05-22T09:32:10.547Z,13.50
2019-05-22T09:33:16.583Z,13.50
2019-05-22T09:34:21.318Z,13.50
2019-05-22T09:35:26.705Z,13.60
2019-05-22T09:36:31.781Z,13.60
2019-05-22T09:37:37.002Z,13.60
2019-05-22T09:38:43.149Z,13.60
2019-05-22T09:39:59.784Z,13.60
2019-05-22T09:41:06.135Z,13.60
2019-05-22T09:42:11.524Z,13.60
2019-05-22T09:43:16.057Z,13.70
2019-05-22T09:44:21.776Z,13.70
2019-05-22T09:45:26.424Z,13.60
2019-05-22T09:46:31.967Z,13.70
2019-05-22T09:47:38.471Z,13.70
2019-05-22T09:48:44.259Z,13.60
2019-05-22T09:49:50.018Z,13.60
2019-05-22T09:50:55.187Z,13.60
2019-05-22T09:52:00.250Z,13.60
2019-05-22T09:53:08.428Z,13.60
2019-05-22T09:54:14.462Z,13.60
2019-05-22T09:55:20.271Z,13.70
2019-05-22T09:56:25.241Z,13.70
2019-05-22T09:57:30.611Z,13.70
2019-05-22T09:58:35.384Z,13.70
2019-05-22T09:59:40.606Z,13.70
2019-05-22T10:00:46.913Z,13.70
2019-05-22T10:01:52.174Z,13.70
2019-05-22T10:02:56.746Z,13.70
2019-05-22T10:04:02.809Z,13.70
2019-05-22T10:05:08.435Z,13.70
2019-05-22T10:06:21.800Z,13.70
2019-05-22T10:07:27.149Z,13.70
2019-05-22T10:08:32.345Z,13.80
2019-05-22T10:09:37.236Z,13.80
2019-05-22T10:10:42.485Z,13.80
2019-05-22T10:11:47.675Z,13.90
2019-05-22T10:12:52.808Z,13.90
2019-05-22T10:13:57.399Z,14.00
2019-05-22T10:15:04.061Z,14.00
2019-05-22T10:16:09.425Z,13.90
2019-05-22T10:17:15.037Z,13.90
2019-05-22T10:18:20.826Z,13.90
2019-05-22T10:19:26.307Z,13.90
2019-05-22T10:20:31.826Z,14.00
2019-05-22T10:21:37.449Z,13.90
2019-05-22T10:22:43.081Z,13.90
2019-05-22T10:23:48.337Z,13.90
2019-05-22T10:24:52.989Z,13.80
2019-05-22T10:25:58.333Z,13.80
2019-05-22T10:27:03.311Z,13.70
2019-05-22T10:28:08.683Z,13.70
2019-05-22T10:29:13.763Z,13.70
2019-05-22T10:30:21.959Z,13.80
2019-05-22T10:31:27.016Z,13.80
2019-05-22T10:32:32.794Z,13.80
2019-05-22T10:33:39.083Z,13.80
2019-05-22T10:34:44.229Z,13.80
2019-05-22T10:35:50.000Z,13.90
2019-05-22T10:36:55.259Z,13.90
2019-05-22T10:37:59.919Z,13.90
2019-05-22T10:39:06.500Z,13.90
2019-05-22T10:40:11.836Z,13.90
2019-05-22T10:41:18.577Z,13.90
2019-05-22T10:42:23.456Z,13.80
2019-05-22T10:43:29.022Z,13.80
2019-05-22T10:44:33.586Z,13.80
2019-05-22T10:45:39.333Z,13.80
2019-05-22T10:46:44.987Z,13.80
2019-05-22T10:47:50.753Z,13.80
2019-05-22T10:48:55.603Z,13.80
2019-05-22T10:50:01.000Z,13.80
2019-05-22T10:51:05.668Z,13.80
2019-05-22T10:52:10.970Z,13.80
2019-05-22T10:53:32.523Z,13.90
2019-05-22T10:54:23.980Z,13.80
2019-05-22T10:55:29.653Z,13.80
2019-05-22T10:56:34.944Z,13.80
2019-05-22T10:57:40.998Z,13.70
2019-05-22T10:58:46.668Z,13.70
2019-05-22T10:59:51.317Z,13.70
2019-05-22T11:00:57.147Z,13.70
2019-05-22T11:02:01.847Z,13.60
2019-05-22T11:03:07.381Z,13.60
2019-05-22T11:04:12.890Z,13.60
2019-05-22T11:05:20.938Z,13.60
2019-05-22T11:06:25.971Z,13.60
2019-05-22T11:07:31.367Z,13.60
2019-05-22T11:08:36.265Z,13.60
2019-05-22T11:09:42.516Z,13.60
2019-05-22T11:10:48.434Z,13.60
2019-05-22T11:11:54.581Z,13.60
2019-05-22T11:12:59.586Z,13.60
2019-05-22T11:14:09.315Z,13.60
2019-05-22T11:15:12.939Z,13.60
2019-05-22T11:16:18.669Z,13.60
2019-05-22T11:17:23.375Z,13.60
2019-05-22T11:18:29.565Z,13.60
2019-05-22T11:19:34.320Z,13.60
2019-05-22T11:20:40.062Z,13.60
2019-05-22T11:21:45.117Z,13.60
2019-05-22T11:22:50.876Z,13.60
2019-05-22T11:23:55.500Z,13.60
2019-05-22T11:25:00.615Z,13.50
2019-05-22T11:26:05.469Z,13.50
2019-05-22T11:27:10.701Z,13.50
2019-05-22T11:28:15.513Z,13.50
2019-05-22T11:29:20.984Z,13.50
2019-05-22T11:30:26.408Z,13.40
2019-05-22T11:31:32.089Z,13.40
2019-05-22T11:32:36.771Z,13.40
2019-05-22T11:33:42.236Z,13.40
2019-05-22T11:34:47.170Z,13.40
2019-05-22T11:35:53.329Z,13.40
2019-05-22T11:36:58.073Z,13.40
2019-05-22T11:38:03.960Z,13.50
2019-05-22T11:39:13.823Z,13.40
2019-05-22T11:40:20.543Z,13.50
2019-05-22T11:41:27.081Z,13.50
2019-05-22T11:42:32.543Z,13.50
2019-05-22T11:43:37.131Z,13.60
2019-05-22T11:44:42.976Z,13.60
2019-05-22T11:45:47.646Z,13.60
2019-05-22T11:46:53.320Z,13.60
2019-05-22T11:47:58.041Z,13.60
2019-05-22T11:49:03.521Z,13.60
2019-05-22T11:50:09.485Z,13.60
2019-05-22T11:51:15.061Z,13.60
2019-05-22T11:52:20.590Z,13.70
2019-05-22T11:53:26.012Z,13.60
2019-05-22T11:54:30.590Z,13.70
2019-05-22T11:55:44.847Z,13.70
2019-05-22T11:56:42.805Z,13.70
2019-05-22T11:57:48.440Z,13.70
2019-05-22T11:58:53.303Z,13.70
2019-05-22T11:59:58.732Z,13.70
2019-05-22T12:01:04.936Z,13.60
2019-05-22T12:02:12.175Z,13.60
2019-05-22T12:03:18.628Z,13.60
2019-05-22T12:04:25.254Z,13.60
2019-05-22T12:05:32.192Z,13.60
2019-05-22T12:06:38.033Z,13.60
2019-05-22T12:07:43.473Z,13.60
2019-05-22T12:08:49.999Z,13.50
2019-05-22T12:09:54.839Z,13.50
2019-05-22T12:11:02.426Z,13.50
2019-05-22T12:12:08.932Z,13.50
2019-05-22T12:13:14.591Z,13.60
2019-05-22T12:14:19.910Z,13.60
2019-05-22T12:15:27.624Z,13.60
2019-05-22T12:16:32.547Z,13.60
2019-05-22T12:17:39.719Z,13.70
2019-05-22T12:18:44.853Z,13.70
2019-05-22T12:19:50.442Z,13.60
2019-05-22T12:20:55.321Z,13.60
2019-05-22T12:22:00.535Z,13.70
2019-05-22T12:23:05.355Z,13.70
2019-05-22T12:24:26.274Z,13.60
2019-05-22T12:25:18.428Z,13.60
2019-05-22T12:26:23.711Z,13.60
2019-05-22T12:27:28.469Z,13.60
2019-05-22T12:28:33.836Z,13.60
2019-05-22T12:29:39.024Z,13.60
2019-05-22T12:30:46.174Z,13.60
2019-05-22T12:31:51.022Z,13.60
2019-05-22T12:32:57.328Z,13.60
2019-05-22T12:34:02.179Z,13.60
2019-05-22T12:35:14.808Z,13.60
2019-05-22T12:36:20.530Z,13.60
2019-05-22T12:37:26.053Z,13.60
2019-05-22T12:38:31.891Z,13.60
2019-05-22T12:39:39.477Z,13.60
2019-05-22T12:40:46.598Z,13.60
2019-05-22T12:41:53.116Z,13.60
2019-05-22T12:42:58.562Z,13.60
2019-05-22T12:44:05.080Z,13.60
2019-05-22T12:45:11.094Z,13.60
2019-05-22T12:46:17.201Z,13.60
2019-05-22T12:47:23.601Z,13.50
2019-05-22T12:48:28.879Z,13.50
2019-05-22T12:49:33.711Z,13.50
2019-05-22T12:50:39.206Z,13.40
2019-05-22T12:51:44.303Z,13.40
2019-05-22T12:52:51.187Z,13.40
2019-05-22T12:53:56.262Z,13.40
2019-05-22T12:55:02.057Z,13.40
2019-05-22T12:56:07.195Z,13.40
2019-05-22T12:57:13.234Z,13.40
2019-05-22T12:58:19.257Z,13.40
2019-05-22T12:59:25.817Z,13.40
2019-05-22T13:00:31.393Z,13.40
2019-05-22T13:01:37.011Z,13.40
2019-05-22T13:02:43.213Z,13.40
2019-05-22T13:03:49.724Z,13.40
2019-05-22T13:04:54.696Z,13.50
2019-05-22T13:06:00.218Z,13.50
2019-05-22T13:07:05.574Z,13.60
2019-05-22T13:08:13.065Z,13.60
2019-05-22T13:09:18.096Z,13.60
2019-05-22T13:10:24.722Z,13.60
2019-05-22T13:11:29.949Z,13.60
2019-05-22T13:12:35.469Z,13.60
2019-05-22T13:13:40.515Z,13.60
2019-05-22T13:14:46.408Z,13.60
2019-05-22T13:15:52.039Z,13.50
2019-05-22T13:16:58.289Z,13.60
2019-05-22T13:18:03.364Z,13.50
2019-05-22T13:19:08.824Z,13.50
2019-05-22T13:20:15.477Z,13.50
2019-05-22T13:21:22.986Z,13.50
2019-05-22T13:22:30.017Z,13.50
2019-05-22T13:23:39.783Z,13.50
2019-05-22T13:24:44.781Z,13.50
2019-05-22T13:25:50.017Z,13.50
2019-05-22T13:26:56.369Z,13.50
2019-05-22T13:28:03.105Z,13.50
2019-05-22T13:29:07.963Z,13.50
2019-05-22T13:30:15.982Z,13.50
2019-05-22T13:31:21.624Z,13.50
2019-05-22T13:32:29.566Z,13.50
2019-05-22T13:33:35.707Z,13.50
2019-05-22T13:34:41.996Z,13.60
2019-05-22T13:35:47.058Z,13.60
2019-05-22T13:36:56.544Z,13.70
2019-05-22T13:38:00.405Z,13.60
2019-05-22T13:39:09.517Z,13.60
2019-05-22T13:40:27.031Z,13.60
2019-05-22T13:41:21.760Z,13.60
2019-05-22T13:42:26.733Z,13.60
2019-05-22T13:43:33.414Z,13.60
2019-05-22T13:44:38.446Z,13.60
2019-05-22T13:45:44.052Z,13.50
2019-05-22T13:46:49.375Z,13.50
2019-05-22T13:47:54.553Z,13.50
2019-05-22T13:48:59.173Z,13.50
2019-05-22T13:50:07.507Z,13.50
2019-05-22T13:51:13.020Z,13.50
2019-05-22T13:52:18.266Z,13.50
2019-05-22T13:53:22.812Z,13.40
2019-05-22T13:54:28.587Z,13.50
2019-05-22T13:55:33.723Z,13.50
2019-05-22T13:56:40.715Z,13.40
2019-05-22T13:57:45.470Z,13.40
2019-05-22T13:58:50.732Z,13.40
2019-05-22T13:59:57.111Z,13.30
2019-05-22T14:01:03.172Z,13.40
2019-05-22T14:02:08.807Z,13.30
2019-05-22T14:03:15.146Z,13.30
2019-05-22T14:04:19.727Z,13.30
2019-05-22T14:05:26.543Z,13.40
2019-05-22T14:06:31.520Z,13.30
2019-05-22T14:07:36.885Z,13.40
2019-05-22T14:08:41.743Z,13.40
2019-05-22T14:09:47.234Z,13.40
2019-05-22T14:10:53.738Z,13.40
2019-05-22T14:11:59.520Z,13.40
2019-05-22T14:13:04.897Z,13.40
2019-05-22T14:14:10.651Z,13.40
2019-05-22T14:15:16.247Z,13.40
2019-05-22T14:16:22.026Z,13.40
2019-05-22T14:17:26.790Z,13.40
2019-05-22T14:18:32.311Z,13.40
2019-05-22T14:19:38.426Z,13.40
2019-05-22T14:20:43.832Z,13.50
2019-05-22T14:21:51.348Z,13.50
2019-05-22T14:22:56.743Z,13.50
2019-05-22T14:24:01.452Z,13.60
2019-05-22T14:25:07.312Z,13.60
2019-05-22T14:26:12.260Z,13.50
2019-05-22T14:27:17.458Z,13.50